createdAt,value
2018-08-03T00:00:17.679Z,23.35
2018-08-03T00:02:46.646Z,23.25
2018-08-03T00:05:15.555Z,23.34
2018-08-03T00:07:44.478Z,23.27
2018-08-03T00:10:13.447Z,23.22
2018-08-03T00:12:42.375Z,23.28
2018-08-03T00:15:11.397Z,23.29
2018-08-03T00:17:40.346Z,23.32
2018-08-03T00:20:09.315Z,23.33
2018-08-03T00:22:38.241Z,23.34
2018-08-03T00:25:07.971Z,23.29
2018-08-03T00:27:36.871Z,23.21
2018-08-03T00:30:05.937Z,23.02
2018-08-03T00:32:34.897Z,22.94
2018-08-03T00:35:04.029Z,23.12
2018-08-03T00:37:32.999Z,23.18
2018-08-03T00:40:01.903Z,23.13
2018-08-03T00:42:30.807Z,23.11
2018-08-03T00:44:59.700Z,23.07
2018-08-03T00:47:28.631Z,23.02
2018-08-03T00:49:57.567Z,23.04
2018-08-03T00:52:26.582Z,22.95
2018-08-03T00:54:55.520Z,22.89
2018-08-03T00:57:24.387Z,22.86
2018-08-03T00:59:53.328Z,22.64
2018-08-03T01:02:22.237Z,22.60
2018-08-03T01:04:51.208Z,22.68
2018-08-03T01:07:20.197Z,22.80
2018-08-03T01:09:49.143Z,22.64
2018-08-03T01:12:18.090Z,22.52
2018-08-03T01:14:46.987Z,22.50
2018-08-03T01:17:15.908Z,22.41
2018-08-03T01:19:45.831Z,22.45
2018-08-03T01:22:14.823Z,22.35
2018-08-03T01:24:43.833Z,22.38
2018-08-03T01:27:12.847Z,22.39
2018-08-03T01:29:41.791Z,22.35
2018-08-03T01:32:10.732Z,22.44
2018-08-03T01:34:39.614Z,22.44
2018-08-03T01:37:08.628Z,22.45
2018-08-03T01:39:37.542Z,22.44
2018-08-03T01:42:07.639Z,22.47
2018-08-03T01:44:36.657Z,22.43
2018-08-03T01:47:05.597Z,22.42
2018-08-03T01:49:34.575Z,22.23
2018-08-03T01:52:03.483Z,22.16
2018-08-03T01:54:32.387Z,22.17
2018-08-03T01:57:01.345Z,22.10
2018-08-03T01:59:30.317Z,22.17
2018-08-03T02:01:59.265Z,22.20
2018-08-03T02:04:28.185Z,22.29
2018-08-03T02:06:57.277Z,22.37
2018-08-03T02:09:26.209Z,22.51
2018-08-03T02:11:55.173Z,22.49
2018-08-03T02:14:24.138Z,22.52
2018-08-03T02:16:53.057Z,22.42
2018-08-03T02:19:21.928Z,22.23
2018-08-03T02:21:50.881Z,22.18
2018-08-03T02:24:19.809Z,22.26
2018-08-03T02:26:48.798Z,22.43
2018-08-03T02:29:17.828Z,22.26
2018-08-03T02:31:46.805Z,22.29
2018-08-03T02:34:15.745Z,22.39
2018-08-03T02:36:44.790Z,22.44
2018-08-03T02:39:13.837Z,22.35
2018-08-03T02:41:42.815Z,22.30
2018-08-03T02:44:11.802Z,22.17
2018-08-03T02:46:40.726Z,22.31
2018-08-03T02:49:09.656Z,22.34
2018-08-03T02:51:38.568Z,22.45
2018-08-03T02:54:07.493Z,22.56
2018-08-03T02:56:36.405Z,22.40
2018-08-03T02:59:05.327Z,22.48
2018-08-03T03:01:34.277Z,22.42
2018-08-03T03:04:03.264Z,22.22
2018-08-03T03:06:32.203Z,22.19
2018-08-03T03:09:01.154Z,22.29
2018-08-03T03:11:30.081Z,22.34
2018-08-03T03:13:58.989Z,22.39
2018-08-03T03:16:27.933Z,22.30
2018-08-03T03:18:56.960Z,22.42
2018-08-03T03:21:25.859Z,22.25
2018-08-03T03:23:54.857Z,22.37
2018-08-03T03:26:23.769Z,22.33
2018-08-03T03:28:52.821Z,22.40
2018-08-03T03:31:21.735Z,22.45
2018-08-03T03:33:50.634Z,22.33
2018-08-03T03:36:19.563Z,22.37
2018-08-03T03:38:48.472Z,22.42
2018-08-03T03:41:17.483Z,22.39
2018-08-03T03:43:46.472Z,22.39
2018-08-03T03:46:15.404Z,22.34
2018-08-03T03:48:44.309Z,22.23
2018-08-03T03:51:13.228Z,22.13
2018-08-03T03:53:42.132Z,22.19
2018-08-03T03:56:11.050Z,22.16
2018-08-03T03:58:39.980Z,22.16
2018-08-03T04:01:08.931Z,22.11
2018-08-03T04:03:37.891Z,22.12
2018-08-03T04:06:07.064Z,22.08
2018-08-03T04:08:36.018Z,22.09
2018-08-03T04:11:04.999Z,22.00
2018-08-03T04:13:33.980Z,21.75
2018-08-03T04:16:02.903Z,21.75
2018-08-03T04:18:31.849Z,21.79
2018-08-03T04:21:00.768Z,21.80
2018-08-03T04:23:29.937Z,21.92
2018-08-03T04:25:58.925Z,21.92
2018-08-03T04:28:27.859Z,22.00
2018-08-03T04:30:56.767Z,21.96
2018-08-03T04:33:25.723Z,22.08
2018-08-03T04:35:55.415Z,22.12
2018-08-03T04:38:24.342Z,22.11
2018-08-03T04:40:53.276Z,22.22
2018-08-03T04:43:22.187Z,22.19
2018-08-03T04:45:51.225Z,22.18
2018-08-03T04:48:20.129Z,22.17
2018-08-03T04:50:49.021Z,21.92
2018-08-03T04:53:17.998Z,21.99
2018-08-03T04:55:46.972Z,22.01
2018-08-03T04:58:15.856Z,22.02
2018-08-03T05:00:44.764Z,22.00
2018-08-03T05:03:13.684Z,22.00
2018-08-03T05:05:42.565Z,22.08
2018-08-03T05:08:11.496Z,22.12
2018-08-03T05:10:40.519Z,22.18
2018-08-03T05:13:09.535Z,22.17
2018-08-03T05:15:38.454Z,22.16
2018-08-03T05:18:07.470Z,22.11
2018-08-03T05:20:36.396Z,22.10
2018-08-03T05:23:05.329Z,22.01
2018-08-03T05:25:34.247Z,21.92
2018-08-03T05:28:03.150Z,22.02
2018-08-03T05:30:32.152Z,21.95
2018-08-03T05:33:01.363Z,22.00
2018-08-03T05:35:30.346Z,21.97
2018-08-03T05:37:59.332Z,21.85
2018-08-03T05:40:28.279Z,21.95
2018-08-03T05:42:57.164Z,22.03
2018-08-03T05:45:26.127Z,22.11
2018-08-03T05:47:55.007Z,22.18
2018-08-03T05:50:23.963Z,22.16
2018-08-03T05:52:52.999Z,22.27
2018-08-03T05:55:21.992Z,22.39
2018-08-03T05:57:51.029Z,22.50
2018-08-03T06:00:19.917Z,22.47
2018-08-03T06:02:49.111Z,22.32
2018-08-03T06:05:18.444Z,22.32
2018-08-03T06:07:47.435Z,22.44
2018-08-03T06:10:16.359Z,22.40
2018-08-03T06:12:45.319Z,22.27
2018-08-03T06:15:14.208Z,22.43
2018-08-03T06:17:43.209Z,22.42
2018-08-03T06:20:13.356Z,22.32
2018-08-03T06:22:42.616Z,22.47
2018-08-03T06:25:11.808Z,22.57
2018-08-03T06:27:47.323Z,22.68
2018-08-03T06:30:16.356Z,22.70
2018-08-03T06:32:45.233Z,22.80
2018-08-03T06:35:14.300Z,22.86
2018-08-03T06:37:43.207Z,22.99
2018-08-03T06:40:12.154Z,22.99
2018-08-03T06:42:44.091Z,23.08
2018-08-03T06:45:13.184Z,23.13
2018-08-03T06:47:42.233Z,23.15
2018-08-03T06:50:11.220Z,23.26
2018-08-03T06:52:40.252Z,23.36
2018-08-03T06:55:09.215Z,23.41
2018-08-03T06:57:38.174Z,23.34
2018-08-03T07:00:07.543Z,23.59
2018-08-03T07:02:36.620Z,23.88
2018-08-03T07:05:06.602Z,24.15
2018-08-03T07:07:35.528Z,24.62
2018-08-03T07:10:04.647Z,25.06
2018-08-03T07:12:33.650Z,25.44
2018-08-03T07:15:02.585Z,25.76
2018-08-03T07:17:31.555Z,26.04
2018-08-03T07:20:00.511Z,26.21
2018-08-03T07:22:29.411Z,26.51
2018-08-03T07:24:58.318Z,26.71
2018-08-03T07:27:27.332Z,27.40
2018-08-03T07:29:56.282Z,27.38
2018-08-03T07:32:25.602Z,27.87
2018-08-03T07:34:54.579Z,28.45
2018-08-03T07:37:23.504Z,28.87
2018-08-03T07:39:52.444Z,28.66
2018-08-03T07:42:21.375Z,28.57
2018-08-03T07:44:50.314Z,28.59
2018-08-03T07:47:19.288Z,27.79
2018-08-03T07:49:48.485Z,27.66
2018-08-03T07:52:17.480Z,27.54
2018-08-03T07:54:46.698Z,27.62
2018-08-03T07:57:15.638Z,27.50
2018-08-03T07:59:50.183Z,27.53
2018-08-03T08:02:19.208Z,27.74
2018-08-03T08:04:48.200Z,27.99
2018-08-03T08:07:17.120Z,27.99
2018-08-03T08:09:46.900Z,27.80
2018-08-03T08:12:15.720Z,27.80
2018-08-03T08:14:44.734Z,27.98
2018-08-03T08:17:13.648Z,27.86
2018-08-03T08:19:42.568Z,27.67
2018-08-03T08:22:11.461Z,27.42
2018-08-03T08:24:40.596Z,27.87
2018-08-03T08:27:13.286Z,27.90
2018-08-03T08:29:42.306Z,27.83
2018-08-03T08:32:11.212Z,27.68
2018-08-03T08:34:40.170Z,27.53
2018-08-03T08:37:09.180Z,27.32
2018-08-03T08:39:38.174Z,27.31
2018-08-03T08:42:07.330Z,27.25
2018-08-03T08:44:36.414Z,26.72
2018-08-03T08:47:05.444Z,26.90
2018-08-03T08:49:34.388Z,26.97
2018-08-03T08:52:03.332Z,26.96
2018-08-03T08:54:32.344Z,27.20
2018-08-03T08:57:01.318Z,27.10
2018-08-03T08:59:30.281Z,27.14
2018-08-03T09:01:59.209Z,27.46
2018-08-03T09:04:28.680Z,27.21
2018-08-03T09:06:57.600Z,27.38
2018-08-03T09:09:26.531Z,27.39
2018-08-03T09:11:55.481Z,27.35
2018-08-03T09:14:24.447Z,27.30
2018-08-03T09:16:53.357Z,27.43
2018-08-03T09:19:22.410Z,27.31
2018-08-03T09:21:51.348Z,27.45
2018-08-03T09:24:20.243Z,27.36
2018-08-03T09:26:49.284Z,27.14
2018-08-03T09:29:18.215Z,26.91
2018-08-03T09:31:47.161Z,26.89
2018-08-03T09:34:18.159Z,27.14
2018-08-03T09:36:47.077Z,27.22
2018-08-03T09:39:17.178Z,27.14
2018-08-03T09:41:46.211Z,27.26
2018-08-03T09:44:15.139Z,27.37
2018-08-03T09:46:45.052Z,27.27
2018-08-03T09:49:19.534Z,27.34
2018-08-03T09:51:48.396Z,27.81
2018-08-03T09:54:18.326Z,28.18
2018-08-03T09:56:48.131Z,28.20
2018-08-03T09:59:17.125Z,28.20
2018-08-03T10:01:46.105Z,28.11
2018-08-03T10:04:15.007Z,27.83
2018-08-03T10:06:43.994Z,28.25
2018-08-03T10:09:12.891Z,28.21
2018-08-03T10:11:41.857Z,27.73
2018-08-03T10:14:10.827Z,27.56
2018-08-03T10:16:39.843Z,28.14
2018-08-03T10:19:08.907Z,28.19
2018-08-03T10:21:37.911Z,28.09
2018-08-03T10:24:06.839Z,28.58
2018-08-03T10:26:35.814Z,28.43
2018-08-03T10:29:04.733Z,28.24
2018-08-03T10:31:33.677Z,28.53
2018-08-03T10:34:03.309Z,28.49
2018-08-03T10:36:32.921Z,28.54
2018-08-03T10:39:09.087Z,28.27
2018-08-03T10:41:43.535Z,28.58
2018-08-03T10:44:12.689Z,28.18
2018-08-03T10:46:42.768Z,28.12
2018-08-03T10:49:11.740Z,27.94
2018-08-03T10:51:40.719Z,28.18
2018-08-03T10:54:09.688Z,28.26
2018-08-03T10:56:38.972Z,28.19
2018-08-03T10:59:07.886Z,28.09
2018-08-03T11:01:36.863Z,27.98
2018-08-03T11:04:06.151Z,28.09
2018-08-03T11:06:35.171Z,28.21
2018-08-03T11:09:04.286Z,28.37
2018-08-03T11:11:33.193Z,28.64
2018-08-03T11:14:02.198Z,28.71
2018-08-03T11:16:31.067Z,28.45
2018-08-03T11:19:00.053Z,28.38
2018-08-03T11:21:30.263Z,28.13
2018-08-03T11:23:59.297Z,28.46
2018-08-03T11:26:28.191Z,28.86
2018-08-03T11:28:57.091Z,29.03
2018-08-03T11:31:26.017Z,28.86
2018-08-03T11:33:55.019Z,28.82
2018-08-03T11:36:23.941Z,28.73
2018-08-03T11:38:52.855Z,28.71
2018-08-03T11:41:22.424Z,28.67
2018-08-03T11:43:51.448Z,28.67
2018-08-03T11:46:20.509Z,28.57
2018-08-03T11:48:49.469Z,28.63
2018-08-03T11:51:18.469Z,28.57
2018-08-03T11:53:47.373Z,28.59
2018-08-03T11:56:16.273Z,28.68
2018-08-03T11:58:46.284Z,28.79
2018-08-03T12:01:20.952Z,28.87
2018-08-03T12:03:50.029Z,28.81
2018-08-03T12:06:19.267Z,28.92
2018-08-03T12:08:48.193Z,29.01
2018-08-03T12:11:17.189Z,28.92
2018-08-03T12:13:46.115Z,29.03
2018-08-03T12:16:15.111Z,28.99
2018-08-03T12:18:44.011Z,29.14
2018-08-03T12:21:12.925Z,29.19
2018-08-03T12:23:41.943Z,29.19
2018-08-03T12:26:11.067Z,29.15
2018-08-03T12:28:39.971Z,29.19
2018-08-03T12:31:09.192Z,29.41
2018-08-03T12:33:38.096Z,29.21
2018-08-03T12:36:07.159Z,29.20
2018-08-03T12:38:36.831Z,29.08
2018-08-03T12:41:05.933Z,29.12
2018-08-03T12:43:34.881Z,29.10
2018-08-03T12:46:03.932Z,29.13
2018-08-03T12:48:33.812Z,29.32
2018-08-03T12:51:02.819Z,29.73
2018-08-03T12:53:31.723Z,29.48
2018-08-03T12:56:00.632Z,29.63
2018-08-03T12:58:29.673Z,29.44
2018-08-03T13:00:58.627Z,29.58
2018-08-03T13:03:27.555Z,29.46
2018-08-03T13:06:00.657Z,29.45
2018-08-03T13:08:30.048Z,29.41
2018-08-03T13:10:58.901Z,29.39
2018-08-03T13:13:27.789Z,29.49
2018-08-03T13:15:56.751Z,29.50
2018-08-03T13:18:25.683Z,29.49
2018-08-03T13:20:54.651Z,29.55
2018-08-03T13:23:23.643Z,29.55
2018-08-03T13:25:52.733Z,29.62
2018-08-03T13:28:27.139Z,29.63
2018-08-03T13:31:01.501Z,29.68
2018-08-03T13:33:30.976Z,29.56
2018-08-03T13:35:59.875Z,29.41
2018-08-03T13:38:32.344Z,29.57
2018-08-03T13:41:01.316Z,29.75
2018-08-03T13:43:30.230Z,29.66
2018-08-03T13:45:59.193Z,29.70
2018-08-03T13:48:28.164Z,29.87
2018-08-03T13:50:57.096Z,29.72
2018-08-03T13:53:26.274Z,29.70
2018-08-03T13:55:55.274Z,29.75
2018-08-03T13:58:24.213Z,29.74
2018-08-03T14:01:03.277Z,29.74
2018-08-03T14:03:32.318Z,29.70
2018-08-03T14:06:01.231Z,29.68
2018-08-03T14:08:30.226Z,29.70
2018-08-03T14:10:59.167Z,29.62
2018-08-03T14:13:28.107Z,29.67
2018-08-03T14:15:59.195Z,29.64
2018-08-03T14:18:28.083Z,29.79
2018-08-03T14:20:57.137Z,29.83
2018-08-03T14:23:27.287Z,29.85
2018-08-03T14:25:57.318Z,29.92
2018-08-03T14:28:26.253Z,29.84
2018-08-03T14:30:59.963Z,29.80
2018-08-03T14:33:28.988Z,29.73
2018-08-03T14:35:58.044Z,29.73
2018-08-03T14:38:28.536Z,29.84
2018-08-03T14:40:57.525Z,29.84
2018-08-03T14:43:26.440Z,29.78
2018-08-03T14:45:55.416Z,29.77
2018-08-03T14:48:24.403Z,29.73
2018-08-03T14:50:53.443Z,29.94
2018-08-03T14:53:22.391Z,29.84
2018-08-03T14:55:51.453Z,29.75
2018-08-03T14:58:20.412Z,29.81
2018-08-03T15:00:49.384Z,29.85
2018-08-03T15:03:18.357Z,29.83
2018-08-03T15:05:47.337Z,29.65
2018-08-03T15:08:16.314Z,29.68
2018-08-03T15:10:45.318Z,29.70
2018-08-03T15:13:14.243Z,29.76
2018-08-03T15:15:43.179Z,29.54
2018-08-03T15:18:12.184Z,29.67
2018-08-03T15:20:41.127Z,29.69
2018-08-03T15:23:10.221Z,29.65
2018-08-03T15:25:39.450Z,29.62
2018-08-03T15:28:08.484Z,29.53
2018-08-03T15:30:37.468Z,29.59
2018-08-03T15:33:06.381Z,29.43
2018-08-03T15:35:35.400Z,29.50
2018-08-03T15:38:04.457Z,29.45
2018-08-03T15:40:33.472Z,29.39
2018-08-03T15:43:02.486Z,29.25
2018-08-03T15:45:31.523Z,29.19
2018-08-03T15:48:00.472Z,29.23
2018-08-03T15:50:29.621Z,29.11
2018-08-03T15:52:58.534Z,29.08
2018-08-03T15:55:27.472Z,29.06
2018-08-03T15:58:14.704Z,29.13
2018-08-03T16:00:43.715Z,29.27
2018-08-03T16:03:12.740Z,29.21
2018-08-03T16:05:41.904Z,29.13
2018-08-03T16:08:10.873Z,29.13
2018-08-03T16:10:39.788Z,29.12
2018-08-03T16:13:08.922Z,29.11
2018-08-03T16:15:38.692Z,29.05
2018-08-03T16:18:07.652Z,28.97
2018-08-03T16:20:37.715Z,28.91
2018-08-03T16:23:06.632Z,28.66
2018-08-03T16:25:36.044Z,28.66
2018-08-03T16:28:05.352Z,28.82
2018-08-03T16:30:34.332Z,28.87
2018-08-03T16:33:03.380Z,28.86
2018-08-03T16:35:32.326Z,29.07
2018-08-03T16:38:01.380Z,29.04
2018-08-03T16:40:30.272Z,29.02
2018-08-03T16:42:59.179Z,28.98
2018-08-03T16:45:28.082Z,28.87
2018-08-03T16:47:56.997Z,29.03
2018-08-03T16:50:25.992Z,29.03
2018-08-03T16:52:54.948Z,29.13
2018-08-03T16:55:23.851Z,29.06
2018-08-03T16:57:52.796Z,29.14
2018-08-03T17:00:22.814Z,29.13
2018-08-03T17:02:51.729Z,28.99
2018-08-03T17:05:20.617Z,28.92
2018-08-03T17:07:49.568Z,29.04
2018-08-03T17:10:18.480Z,28.98
2018-08-03T17:12:47.378Z,28.99
2018-08-03T17:15:18.399Z,28.99
2018-08-03T17:17:47.342Z,28.99
2018-08-03T17:20:16.253Z,28.91
2018-08-03T17:22:49.157Z,28.89
2018-08-03T17:25:20.302Z,28.89
2018-08-03T17:27:53.082Z,28.89
2018-08-03T17:30:22.064Z,28.87
2018-08-03T17:32:51.028Z,28.84
2018-08-03T17:35:20.008Z,28.75
2018-08-03T17:37:48.948Z,28.81
2018-08-03T17:40:17.864Z,28.77
2018-08-03T17:42:46.879Z,28.76
2018-08-03T17:45:15.792Z,28.70
2018-08-03T17:47:44.762Z,28.71
2018-08-03T17:50:14.750Z,28.72
2018-08-03T17:52:43.700Z,28.69
2018-08-03T17:55:12.596Z,28.75
2018-08-03T17:57:41.508Z,28.73
2018-08-03T18:00:10.574Z,28.69
2018-08-03T18:02:39.460Z,28.63
2018-08-03T18:05:08.458Z,28.69
2018-08-03T18:07:37.392Z,28.69
2018-08-03T18:10:07.898Z,28.67
2018-08-03T18:12:36.968Z,28.69
2018-08-03T18:15:07.115Z,28.57
2018-08-03T18:17:36.026Z,28.52
2018-08-03T18:20:05.437Z,28.56
2018-08-03T18:22:34.332Z,28.63
2018-08-03T18:25:03.364Z,28.63
2018-08-03T18:27:32.407Z,28.64
2018-08-03T18:30:01.345Z,28.54
2018-08-03T18:32:30.231Z,28.57
2018-08-03T18:34:59.211Z,28.51
2018-08-03T18:37:28.087Z,28.48
2018-08-03T18:39:57.122Z,28.56
2018-08-03T18:42:26.054Z,28.52
2018-08-03T18:44:55.030Z,28.44
2018-08-03T18:47:23.926Z,28.47
2018-08-03T18:49:52.834Z,28.48
2018-08-03T18:52:21.734Z,28.44
2018-08-03T18:54:50.683Z,28.26
2018-08-03T18:57:20.130Z,28.24
2018-08-03T18:59:49.056Z,28.19
2018-08-03T19:02:18.039Z,28.15
2018-08-03T19:04:46.958Z,28.16
2018-08-03T19:07:15.904Z,28.13
2018-08-03T19:09:44.841Z,28.13
2018-08-03T19:12:14.738Z,28.09
2018-08-03T19:14:43.626Z,28.05
2018-08-03T19:17:12.559Z,27.99
2018-08-03T19:19:41.446Z,27.87
2018-08-03T19:22:10.370Z,27.82
2018-08-03T19:24:39.276Z,27.76
2018-08-03T19:27:08.352Z,27.72
2018-08-03T19:29:37.449Z,27.71
2018-08-03T19:32:06.519Z,27.64
2018-08-03T19:34:35.415Z,27.52
2018-08-03T19:37:04.391Z,27.35
2018-08-03T19:39:33.304Z,27.28
2018-08-03T19:42:02.283Z,27.27
2018-08-03T19:44:31.196Z,27.20
2018-08-03T19:47:00.166Z,27.24
2018-08-03T19:49:29.077Z,27.17
2018-08-03T19:51:58.016Z,27.17
2018-08-03T19:54:27.012Z,27.12
2018-08-03T19:56:56.651Z,27.08
2018-08-03T19:59:26.580Z,27.09
2018-08-03T20:01:55.479Z,27.13
2018-08-03T20:04:24.397Z,27.02
2018-08-03T20:06:53.365Z,26.87
2018-08-03T20:09:22.303Z,26.81
2018-08-03T20:11:51.267Z,26.76
2018-08-03T20:14:20.182Z,26.78
2018-08-03T20:16:49.103Z,26.80
2018-08-03T20:19:18.029Z,26.67
2018-08-03T20:21:46.926Z,26.66
2018-08-03T20:24:15.867Z,26.64
2018-08-03T20:26:44.756Z,26.53
2018-08-03T20:29:13.655Z,26.55
2018-08-03T20:31:42.586Z,26.53
2018-08-03T20:34:11.458Z,26.52
2018-08-03T20:36:40.418Z,26.55
2018-08-03T20:39:11.067Z,26.48
2018-08-03T20:41:39.938Z,26.40
2018-08-03T20:44:08.874Z,26.32
2018-08-03T20:46:37.846Z,26.13
2018-08-03T20:49:06.799Z,26.07
2018-08-03T20:51:35.717Z,26.07
2018-08-03T20:54:05.795Z,26.01
2018-08-03T20:56:34.910Z,26.05
2018-08-03T20:59:03.872Z,26.02
2018-08-03T21:01:32.815Z,25.99
2018-08-03T21:04:01.714Z,25.89
2018-08-03T21:06:30.618Z,25.86
2018-08-03T21:09:01.698Z,25.79
2018-08-03T21:11:30.671Z,25.79
2018-08-03T21:13:59.711Z,25.91
2018-08-03T21:16:28.637Z,25.88
2018-08-03T21:18:57.595Z,25.73
2018-08-03T21:21:26.561Z,25.82
2018-08-03T21:23:55.578Z,25.71
2018-08-03T21:26:24.835Z,25.69
2018-08-03T21:28:53.812Z,25.53
2018-08-03T21:31:23.722Z,25.13
2018-08-03T21:33:52.710Z,24.88
2018-08-03T21:36:21.738Z,24.58
2018-08-03T21:38:50.717Z,24.60
2018-08-03T21:41:19.711Z,24.71
2018-08-03T21:43:48.737Z,24.81
2018-08-03T21:46:17.676Z,24.57
2018-08-03T21:48:46.619Z,24.58
2018-08-03T21:51:15.523Z,24.48
2018-08-03T21:53:44.537Z,24.53
2018-08-03T21:56:13.454Z,24.44
2018-08-03T21:58:42.504Z,24.53
2018-08-03T22:01:13.252Z,24.46
2018-08-03T22:03:46.208Z,24.47
2018-08-03T22:06:16.190Z,24.42
2018-08-03T22:08:50.639Z,24.39
2018-08-03T22:11:19.641Z,24.40
2018-08-03T22:13:48.636Z,24.41
2018-08-03T22:16:17.614Z,24.44
2018-08-03T22:18:46.622Z,24.43
2018-08-03T22:21:15.499Z,24.51
2018-08-03T22:23:44.487Z,24.55
2018-08-03T22:26:13.371Z,24.60
2018-08-03T22:28:43.298Z,24.49
2018-08-03T22:31:12.273Z,24.40
2018-08-03T22:33:41.971Z,24.46
2018-08-03T22:36:11.085Z,24.44
2018-08-03T22:38:40.064Z,24.38
2018-08-03T22:41:09.033Z,24.25
2018-08-03T22:43:37.946Z,24.33
2018-08-03T22:46:06.880Z,24.23
2018-08-03T22:48:35.832Z,24.38
2018-08-03T22:51:04.836Z,24.39
2018-08-03T22:53:33.828Z,24.41
2018-08-03T22:56:02.685Z,24.46
2018-08-03T22:58:32.231Z,24.33
2018-08-03T23:01:01.175Z,24.22
2018-08-03T23:03:30.058Z,24.33
2018-08-03T23:05:58.992Z,24.38
2018-08-03T23:08:27.962Z,24.43
2018-08-03T23:10:57.926Z,24.48
2018-08-03T23:13:26.794Z,24.17
2018-08-03T23:15:55.974Z,24.34
2018-08-03T23:18:25.524Z,24.42
2018-08-03T23:20:54.852Z,24.26
2018-08-03T23:23:23.732Z,24.27
2018-08-03T23:25:52.682Z,24.33
2018-08-03T23:28:21.674Z,24.25
2018-08-03T23:30:50.784Z,24.25
2018-08-03T23:33:19.731Z,24.19
2018-08-03T23:35:48.631Z,24.21
2018-08-03T23:38:17.542Z,24.22
2018-08-03T23:40:46.487Z,24.23
2018-08-03T23:43:15.388Z,24.10
2018-08-03T23:45:46.517Z,24.19
2018-08-03T23:48:15.420Z,24.34
2018-08-03T23:50:44.467Z,24.28
2018-08-03T23:53:13.373Z,24.19
2018-08-03T23:55:42.282Z,24.19
2018-08-03T23:58:11.160Z,24.24
